createdAt,value
2022-09-10T00:00:27.960Z,17.89
2022-09-10T00:01:00.583Z,17.90
2022-09-10T00:01:34.137Z,17.84
2022-09-10T00:02:06.208Z,17.88
2022-09-10T00:02:39.450Z,17.91
2022-09-10T00:03:11.598Z,17.94
2022-09-10T00:03:43.777Z,17.91
2022-09-10T00:04:16.998Z,17.81
2022-09-10T00:04:50.455Z,17.94
2022-09-10T00:05:22.569Z,18.04
2022-09-10T00:05:54.767Z,17.96
2022-09-10T00:06:30.368Z,18.08
2022-09-10T00:07:02.576Z,18.12
2022-09-10T00:07:34.864Z,18.06
2022-09-10T00:08:08.260Z,18.06
2022-09-10T00:08:40.531Z,18.17
2022-09-10T00:09:13.255Z,17.98
2022-09-10T00:09:45.734Z,17.81
2022-09-10T00:10:18.731Z,17.76
2022-09-10T00:10:51.951Z,18.01
2022-09-10T00:11:28.173Z,18.07
2022-09-10T00:12:00.450Z,17.98
2022-09-10T00:12:32.896Z,17.97
2022-09-10T00:13:05.126Z,18.12
2022-09-10T00:13:39.286Z,18.05
2022-09-10T00:14:18.060Z,18.02
2022-09-10T00:14:51.511Z,17.57
2022-09-10T00:15:23.756Z,17.56
2022-09-10T00:15:55.957Z,17.63
2022-09-10T00:16:29.618Z,17.71
2022-09-10T00:17:02.082Z,17.66
2022-09-10T00:17:34.358Z,17.95
2022-09-10T00:18:07.106Z,17.78
2022-09-10T00:18:40.437Z,17.91
2022-09-10T00:19:14.953Z,17.73
2022-09-10T00:19:47.641Z,17.98
2022-09-10T00:20:19.835Z,17.72
2022-09-10T00:20:54.701Z,17.79
2022-09-10T00:21:27.448Z,17.70
2022-09-10T00:21:59.760Z,17.66
2022-09-10T00:22:33.719Z,17.68
2022-09-10T00:23:05.836Z,17.47
2022-09-10T00:23:38.208Z,17.69
2022-09-10T00:24:10.459Z,17.73
2022-09-10T00:24:42.703Z,17.75
2022-09-10T00:25:15.344Z,17.86
2022-09-10T00:25:48.234Z,17.72
2022-09-10T00:26:20.455Z,17.80
2022-09-10T00:26:52.751Z,17.87
2022-09-10T00:27:25.519Z,17.88
2022-09-10T00:28:00.843Z,17.89
2022-09-10T00:28:32.950Z,17.78
2022-09-10T00:29:11.173Z,17.83
2022-09-10T00:29:43.360Z,17.81
2022-09-10T00:30:15.537Z,17.87
2022-09-10T00:30:50.194Z,17.87
2022-09-10T00:31:23.690Z,17.95
2022-09-10T00:31:55.884Z,17.93
2022-09-10T00:32:28.041Z,17.83
2022-09-10T00:33:00.565Z,17.92
2022-09-10T00:33:34.146Z,17.91
2022-09-10T00:34:07.403Z,17.88
2022-09-10T00:34:39.644Z,17.89
2022-09-10T00:35:11.865Z,17.80
2022-09-10T00:35:45.617Z,17.93
2022-09-10T00:36:24.478Z,17.85
2022-09-10T00:36:57.563Z,17.89
2022-09-10T00:37:30.972Z,17.72
2022-09-10T00:38:04.094Z,17.78
2022-09-10T00:38:36.453Z,17.72
2022-09-10T00:39:11.915Z,17.45
2022-09-10T00:39:44.719Z,17.54
2022-09-10T00:40:17.085Z,17.36
2022-09-10T00:40:49.590Z,17.46
2022-09-10T00:41:24.900Z,17.52
2022-09-10T00:41:58.321Z,17.52
2022-09-10T00:42:30.763Z,17.51
2022-09-10T00:43:03.475Z,17.66
2022-09-10T00:43:49.394Z,17.72
2022-09-10T00:44:42.731Z,18.01
2022-09-10T00:45:30.084Z,17.66
2022-09-10T00:46:02.310Z,17.61
2022-09-10T00:46:37.235Z,17.61
2022-09-10T00:47:23.685Z,17.63
2022-09-10T00:48:02.649Z,17.67
2022-09-10T00:48:36.179Z,17.73
2022-09-10T00:49:33.971Z,17.55
2022-09-10T00:50:25.714Z,17.72
2022-09-10T00:51:04.298Z,17.57
2022-09-10T00:51:37.245Z,17.71
2022-09-10T00:52:09.965Z,17.79
2022-09-10T00:52:43.219Z,17.88
2022-09-10T00:53:21.639Z,17.65
2022-09-10T00:53:54.389Z,17.61
2022-09-10T00:54:30.470Z,17.74
2022-09-10T00:55:02.981Z,17.76
2022-09-10T00:55:37.539Z,17.83
2022-09-10T00:56:10.570Z,17.75
2022-09-10T00:56:43.197Z,17.83
2022-09-10T00:57:20.562Z,17.83
2022-09-10T00:57:56.276Z,17.58
2022-09-10T00:58:43.265Z,17.68
2022-09-10T00:59:20.358Z,17.76
2022-09-10T00:59:59.375Z,17.92
2022-09-10T01:00:32.070Z,17.86
2022-09-10T01:01:04.646Z,17.76
2022-09-10T01:01:39.004Z,17.85
2022-09-10T01:02:12.314Z,17.67
2022-09-10T01:02:44.598Z,17.76
2022-09-10T01:03:22.471Z,17.95
2022-09-10T01:03:57.403Z,17.94
2022-09-10T01:04:29.966Z,18.07
2022-09-10T01:05:03.998Z,18.19
2022-09-10T01:05:37.432Z,18.01
2022-09-10T01:06:11.157Z,17.99
2022-09-10T01:06:45.779Z,18.02
2022-09-10T01:07:20.108Z,18.10
2022-09-10T01:07:53.189Z,18.10
2022-09-10T01:08:27.536Z,18.10
2022-09-10T01:09:01.833Z,18.18
2022-09-10T01:09:34.258Z,18.06
2022-09-10T01:10:14.553Z,17.78
2022-09-10T01:11:06.779Z,17.89
2022-09-10T01:12:11.290Z,17.98
2022-09-10T01:13:05.269Z,18.18
2022-09-10T01:13:42.928Z,18.17
2022-09-10T01:14:27.061Z,18.14
2022-09-10T01:15:25.992Z,17.97
2022-09-10T01:16:12.326Z,17.97
2022-09-10T01:17:05.997Z,18.16
2022-09-10T01:18:14.347Z,18.17
2022-09-10T01:19:03.084Z,18.22
2022-09-10T01:19:50.255Z,17.87
2022-09-10T01:20:32.571Z,18.14
2022-09-10T01:21:14.070Z,18.15
2022-09-10T01:22:10.830Z,18.10
2022-09-10T01:23:18.072Z,18.00
2022-09-10T01:23:58.237Z,18.10
2022-09-10T01:24:51.801Z,18.05
2022-09-10T01:25:33.506Z,18.03
2022-09-10T01:26:15.214Z,18.07
2022-09-10T01:27:14.427Z,17.80
2022-09-10T01:27:50.307Z,17.68
2022-09-10T01:28:42.080Z,17.71
2022-09-10T01:29:37.873Z,17.61
2022-09-10T01:30:23.231Z,18.03
2022-09-10T01:31:10.722Z,18.00
2022-09-10T01:31:54.604Z,18.04
2022-09-10T01:32:34.522Z,18.09
2022-09-10T01:33:46.713Z,18.01
2022-09-10T01:34:26.289Z,18.06
2022-09-10T01:35:14.726Z,18.22
2022-09-10T01:35:59.255Z,18.17
2022-09-10T01:36:39.177Z,18.10
2022-09-10T01:37:21.684Z,17.96
2022-09-10T01:37:59.767Z,17.99
2022-09-10T01:38:35.675Z,17.93
2022-09-10T01:39:09.463Z,18.01
2022-09-10T01:39:42.887Z,17.73
2022-09-10T01:40:17.907Z,17.79
2022-09-10T01:40:50.744Z,17.95
2022-09-10T01:41:28.403Z,17.76
2022-09-10T01:42:00.954Z,17.74
2022-09-10T01:42:39.856Z,17.64
2022-09-10T01:43:12.899Z,17.67
2022-09-10T01:43:50.467Z,17.30
2022-09-10T01:44:45.000Z,17.49
2022-09-10T01:45:19.990Z,17.63
2022-09-10T01:46:03.380Z,17.88
2022-09-10T01:46:57.777Z,17.60
2022-09-10T01:47:43.576Z,17.41
2022-09-10T01:48:35.207Z,17.58
2022-09-10T01:49:31.290Z,17.37
2022-09-10T01:50:19.282Z,17.70
2022-09-10T01:51:08.934Z,17.53
2022-09-10T01:52:19.118Z,17.56
2022-09-10T01:53:09.552Z,17.69
2022-09-10T01:54:18.388Z,17.63
2022-09-10T01:55:15.711Z,17.65
2022-09-10T01:56:03.136Z,17.52
2022-09-10T01:56:56.043Z,17.49
2022-09-10T01:57:47.846Z,17.58
2022-09-10T01:58:30.636Z,17.63
2022-09-10T01:59:22.857Z,17.34
2022-09-10T02:00:13.081Z,17.17
2022-09-10T02:01:09.645Z,17.25
2022-09-10T02:01:49.381Z,17.42
2022-09-10T02:02:28.898Z,17.58
2022-09-10T02:03:05.991Z,17.62
2022-09-10T02:03:42.094Z,17.72
2022-09-10T02:04:16.265Z,17.54
2022-09-10T02:04:51.751Z,17.61
2022-09-10T02:05:28.944Z,17.49
2022-09-10T02:06:03.300Z,17.30
2022-09-10T02:06:44.945Z,17.36
2022-09-10T02:07:22.888Z,17.49
2022-09-10T02:08:02.094Z,17.41
2022-09-10T02:08:40.113Z,17.65
2022-09-10T02:09:15.105Z,17.65
2022-09-10T02:09:47.765Z,17.65
2022-09-10T02:10:20.607Z,17.67
2022-09-10T02:11:04.050Z,17.80
2022-09-10T02:11:54.264Z,17.75
2022-09-10T02:12:43.185Z,17.81
2022-09-10T02:13:39.343Z,17.63
2022-09-10T02:14:28.916Z,17.84
2022-09-10T02:15:29.696Z,17.60
2022-09-10T02:16:16.810Z,17.85
2022-09-10T02:16:55.144Z,17.97
2022-09-10T02:17:31.829Z,18.05
2022-09-10T02:18:05.831Z,18.14
2022-09-10T02:18:39.983Z,17.98
2022-09-10T02:19:13.181Z,17.75
2022-09-10T02:19:47.580Z,17.85
2022-09-10T02:20:22.182Z,17.97
2022-09-10T02:20:59.635Z,17.93
2022-09-10T02:21:33.283Z,18.02
2022-09-10T02:22:06.069Z,18.07
2022-09-10T02:22:42.583Z,17.91
2022-09-10T02:23:18.556Z,17.81
2022-09-10T02:23:59.519Z,17.97
2022-09-10T02:24:31.796Z,17.95
2022-09-10T02:25:04.917Z,17.97
2022-09-10T02:25:40.126Z,17.97
2022-09-10T02:26:14.588Z,17.91
2022-09-10T02:26:47.572Z,17.99
2022-09-10T02:27:19.799Z,17.92
2022-09-10T02:27:52.273Z,18.04
2022-09-10T02:28:25.486Z,18.05
2022-09-10T02:28:57.926Z,17.91
2022-09-10T02:29:30.158Z,17.90
2022-09-10T02:30:05.451Z,17.90
2022-09-10T02:30:37.389Z,18.00
2022-09-10T02:31:10.094Z,17.67
2022-09-10T02:31:43.885Z,17.70
2022-09-10T02:32:18.111Z,17.64
2022-09-10T02:32:50.007Z,17.83
2022-09-10T02:33:21.991Z,17.81
2022-09-10T02:33:54.587Z,17.91
2022-09-10T02:34:30.539Z,17.79
2022-09-10T02:35:02.607Z,17.84
2022-09-10T02:35:35.002Z,17.89
2022-09-10T02:36:07.789Z,17.94
2022-09-10T02:36:40.564Z,17.86
2022-09-10T02:37:12.969Z,17.93
2022-09-10T02:37:46.019Z,17.90
2022-09-10T02:38:18.327Z,17.90
2022-09-10T02:38:50.681Z,17.65
2022-09-10T02:39:23.165Z,17.75
2022-09-10T02:39:56.336Z,17.88
2022-09-10T02:40:31.877Z,17.75
2022-09-10T02:41:04.219Z,17.75
2022-09-10T02:41:41.562Z,17.68
2022-09-10T02:42:18.351Z,17.70
2022-09-10T02:42:52.307Z,17.78
2022-09-10T02:43:29.725Z,17.64
2022-09-10T02:44:05.147Z,17.68
2022-09-10T02:44:37.660Z,17.76
2022-09-10T02:45:10.313Z,17.80
2022-09-10T02:45:42.705Z,17.88
2022-09-10T02:46:15.359Z,17.72
2022-09-10T02:46:48.272Z,17.77
2022-09-10T02:47:20.552Z,17.63
2022-09-10T02:47:52.916Z,17.65
2022-09-10T02:48:26.735Z,17.69
2022-09-10T02:49:03.193Z,17.44
2022-09-10T02:49:38.868Z,17.62
2022-09-10T02:50:11.803Z,17.53
2022-09-10T02:50:46.290Z,17.72
2022-09-10T02:51:18.991Z,17.76
2022-09-10T02:51:51.648Z,17.69
2022-09-10T02:52:24.130Z,17.75
2022-09-10T02:52:58.094Z,17.81
2022-09-10T02:53:31.792Z,17.89
2022-09-10T02:54:08.586Z,17.81
2022-09-10T02:54:41.274Z,17.81
2022-09-10T02:55:15.883Z,17.89
2022-09-10T02:55:49.076Z,17.93
2022-09-10T02:56:21.432Z,17.79
2022-09-10T02:56:53.727Z,17.85
2022-09-10T02:57:27.049Z,17.80
2022-09-10T02:57:59.494Z,17.75
2022-09-10T02:58:32.302Z,17.81
2022-09-10T02:59:04.786Z,17.86
2022-09-10T02:59:37.604Z,17.99
2022-09-10T03:00:11.208Z,17.96
2022-09-10T03:00:44.261Z,17.77
2022-09-10T03:01:22.051Z,17.62
2022-09-10T03:02:04.071Z,17.76
2022-09-10T03:02:37.039Z,17.95
2022-09-10T03:03:09.632Z,17.85
2022-09-10T03:03:42.804Z,17.82
2022-09-10T03:04:16.468Z,17.90
2022-09-10T03:04:50.799Z,17.99
2022-09-10T03:05:23.113Z,17.87
2022-09-10T03:05:56.397Z,17.99
2022-09-10T03:06:28.740Z,17.99
2022-09-10T03:07:01.134Z,17.93
2022-09-10T03:07:34.446Z,17.76
2022-09-10T03:08:07.852Z,17.66
2022-09-10T03:08:40.556Z,17.84
2022-09-10T03:09:14.121Z,17.98
2022-09-10T03:09:47.431Z,17.94
2022-09-10T03:10:19.769Z,17.88
2022-09-10T03:10:52.114Z,17.91
2022-09-10T03:11:25.546Z,17.79
2022-09-10T03:11:57.833Z,17.59
2022-09-10T03:12:29.961Z,17.79
2022-09-10T03:13:02.506Z,17.74
2022-09-10T03:13:37.821Z,17.80
2022-09-10T03:14:11.041Z,17.76
2022-09-10T03:14:43.745Z,17.72
2022-09-10T03:15:16.372Z,17.92
2022-09-10T03:15:49.015Z,18.06
2022-09-10T03:16:21.791Z,17.93
2022-09-10T03:16:54.046Z,17.89
2022-09-10T03:17:30.039Z,17.91
2022-09-10T03:18:02.296Z,17.72
2022-09-10T03:18:35.368Z,17.87
2022-09-10T03:19:07.843Z,17.97
2022-09-10T03:19:40.146Z,17.96
2022-09-10T03:20:12.724Z,18.05
2022-09-10T03:20:44.910Z,18.10
2022-09-10T03:21:20.693Z,18.20
2022-09-10T03:21:53.155Z,18.31
2022-09-10T03:22:25.571Z,18.27
2022-09-10T03:22:57.727Z,18.20
2022-09-10T03:23:30.046Z,18.17
2022-09-10T03:24:04.702Z,18.01
2022-09-10T03:24:37.462Z,18.02
2022-09-10T03:25:11.817Z,18.01
2022-09-10T03:25:49.084Z,18.17
2022-09-10T03:26:25.434Z,18.24
2022-09-10T03:26:58.862Z,17.86
2022-09-10T03:27:31.189Z,17.92
2022-09-10T03:28:05.234Z,18.00
2022-09-10T03:28:40.508Z,18.06
2022-09-10T03:29:15.640Z,17.77
2022-09-10T03:29:49.444Z,17.82
2022-09-10T03:30:21.935Z,17.91
2022-09-10T03:30:54.604Z,17.83
2022-09-10T03:31:30.025Z,17.66
2022-09-10T03:32:03.274Z,17.72
2022-09-10T03:32:35.452Z,17.67
2022-09-10T03:33:07.886Z,17.78
2022-09-10T03:33:41.505Z,17.60
2022-09-10T03:34:14.435Z,17.85
2022-09-10T03:34:49.572Z,17.92
2022-09-10T03:35:23.147Z,17.92
2022-09-10T03:35:55.556Z,17.76
2022-09-10T03:36:32.932Z,17.70
2022-09-10T03:37:06.008Z,17.45
2022-09-10T03:37:40.639Z,17.51
2022-09-10T03:38:13.868Z,17.61
2022-09-10T03:38:46.811Z,17.76
2022-09-10T03:39:19.333Z,17.86
2022-09-10T03:39:52.220Z,18.01
2022-09-10T03:40:25.368Z,17.88
2022-09-10T03:40:58.307Z,17.78
2022-09-10T03:41:32.105Z,17.67
2022-09-10T03:42:05.799Z,17.81
2022-09-10T03:42:38.865Z,17.42
2022-09-10T03:43:13.009Z,17.74
2022-09-10T03:43:45.854Z,17.51
2022-09-10T03:44:18.462Z,17.65
2022-09-10T03:44:52.522Z,17.89
2022-09-10T03:45:25.528Z,17.79
2022-09-10T03:45:58.386Z,17.74
2022-09-10T03:46:31.568Z,17.62
2022-09-10T03:47:08.850Z,17.90
2022-09-10T03:47:41.183Z,18.01
2022-09-10T03:48:14.057Z,17.90
2022-09-10T03:48:46.927Z,17.91
2022-09-10T03:49:20.162Z,17.97
2022-09-10T03:49:52.609Z,17.92
2022-09-10T03:50:26.419Z,17.92
2022-09-10T03:51:00.252Z,17.65
2022-09-10T03:51:35.329Z,17.88
2022-09-10T03:52:12.875Z,17.92
2022-09-10T03:52:47.811Z,17.97
2022-09-10T03:53:20.453Z,18.02
2022-09-10T03:53:52.864Z,18.06
2022-09-10T03:54:27.525Z,18.16
2022-09-10T03:55:00.111Z,17.95
2022-09-10T03:55:34.363Z,17.77
2022-09-10T03:56:09.000Z,17.47
2022-09-10T03:56:41.644Z,17.68
2022-09-10T03:57:14.467Z,17.97
2022-09-10T03:57:46.945Z,18.13
2022-09-10T03:58:20.339Z,18.01
2022-09-10T03:58:52.645Z,18.07
2022-09-10T03:59:25.100Z,18.25
2022-09-10T04:00:01.551Z,18.29
2022-09-10T04:00:36.104Z,18.23
2022-09-10T04:01:08.993Z,18.10
2022-09-10T04:01:44.311Z,18.05
2022-09-10T04:02:16.908Z,18.09
2022-09-10T04:02:51.095Z,18.12
2022-09-10T04:03:23.664Z,18.07
2022-09-10T04:03:57.606Z,18.17
2022-09-10T04:04:33.126Z,17.99
2022-09-10T04:05:07.215Z,18.12
2022-09-10T04:05:40.977Z,18.00
2022-09-10T04:06:15.074Z,18.04
2022-09-10T04:06:47.468Z,18.06
2022-09-10T04:07:21.538Z,18.03
2022-09-10T04:07:58.989Z,18.18
2022-09-10T04:08:32.641Z,17.82
2022-09-10T04:09:08.050Z,17.95
2022-09-10T04:09:40.723Z,18.00
2022-09-10T04:10:13.510Z,17.63
2022-09-10T04:10:48.366Z,17.68
2022-09-10T04:11:24.135Z,17.64
2022-09-10T04:11:57.017Z,17.82
2022-09-10T04:12:29.899Z,17.99
2022-09-10T04:13:03.047Z,17.84
2022-09-10T04:13:37.966Z,17.99
2022-09-10T04:14:10.659Z,18.06
2022-09-10T04:14:46.799Z,18.11
2022-09-10T04:15:24.490Z,18.00
2022-09-10T04:16:00.705Z,18.17
2022-09-10T04:16:33.017Z,18.30
2022-09-10T04:17:05.860Z,18.18
2022-09-10T04:17:38.804Z,18.16
2022-09-10T04:18:11.996Z,18.33
2022-09-10T04:18:44.624Z,18.40
2022-09-10T04:19:17.489Z,18.44
2022-09-10T04:19:51.355Z,18.20
2022-09-10T04:20:25.400Z,18.38
2022-09-10T04:21:04.973Z,18.38
2022-09-10T04:21:37.686Z,18.46
2022-09-10T04:22:10.119Z,18.52
2022-09-10T04:22:43.709Z,18.37
2022-09-10T04:23:16.895Z,18.40
2022-09-10T04:23:57.077Z,18.37
2022-09-10T04:24:31.112Z,18.43
2022-09-10T04:25:03.980Z,18.57
2022-09-10T04:25:37.023Z,18.44
2022-09-10T04:26:14.925Z,18.52
2022-09-10T04:26:49.181Z,18.42
2022-09-10T04:27:23.236Z,18.33
2022-09-10T04:27:58.519Z,18.47
2022-09-10T04:28:31.380Z,18.56
2022-09-10T04:29:04.426Z,18.62
2022-09-10T04:29:38.331Z,18.65
2022-09-10T04:30:12.928Z,18.80
2022-09-10T04:30:45.871Z,18.71
2022-09-10T04:31:18.552Z,18.53
2022-09-10T04:31:51.995Z,18.64
2022-09-10T04:32:25.145Z,18.41
2022-09-10T04:32:57.567Z,18.17
2022-09-10T04:33:29.946Z,18.06
2022-09-10T04:34:02.263Z,18.11
2022-09-10T04:34:36.293Z,18.03
2022-09-10T04:35:09.366Z,17.73
2022-09-10T04:35:43.364Z,17.45
2022-09-10T04:36:19.540Z,17.66
2022-09-10T04:36:53.669Z,17.79
2022-09-10T04:37:28.065Z,17.71
2022-09-10T04:38:00.582Z,17.78
2022-09-10T04:38:33.783Z,18.02
2022-09-10T04:39:06.342Z,17.89
2022-09-10T04:39:39.161Z,17.80
2022-09-10T04:40:11.830Z,17.48
2022-09-10T04:40:47.433Z,17.65
2022-09-10T04:41:20.023Z,17.51
2022-09-10T04:41:53.446Z,17.46
2022-09-10T04:42:26.240Z,17.76
2022-09-10T04:43:00.256Z,17.84
2022-09-10T04:43:32.531Z,17.98
2022-09-10T04:44:06.756Z,17.95
2022-09-10T04:44:40.003Z,18.00
2022-09-10T04:45:12.493Z,18.11
2022-09-10T04:45:44.890Z,18.01
2022-09-10T04:46:17.945Z,18.14
2022-09-10T04:46:50.890Z,18.08
2022-09-10T04:47:23.396Z,18.06
2022-09-10T04:47:56.146Z,18.16
2022-09-10T04:48:28.815Z,18.25
2022-09-10T04:49:01.555Z,18.30
2022-09-10T04:49:33.853Z,18.16
2022-09-10T04:50:06.941Z,17.96
2022-09-10T04:50:59.382Z,18.12
2022-09-10T04:51:42.052Z,18.36
2022-09-10T04:52:17.208Z,18.22
2022-09-10T04:52:50.361Z,18.14
2022-09-10T04:53:23.183Z,18.07
2022-09-10T04:53:55.741Z,18.02
2022-09-10T04:54:37.722Z,18.11
2022-09-10T04:55:10.937Z,18.11
2022-09-10T04:55:45.918Z,18.14
2022-09-10T04:56:20.664Z,18.25
2022-09-10T04:56:54.162Z,18.24
2022-09-10T04:57:26.348Z,18.29
2022-09-10T04:57:59.169Z,18.34
2022-09-10T04:58:36.634Z,18.25
2022-09-10T04:59:11.211Z,18.17
2022-09-10T04:59:44.956Z,18.16
2022-09-10T05:00:18.795Z,18.09
2022-09-10T05:00:52.115Z,17.94
2022-09-10T05:01:25.743Z,17.93
2022-09-10T05:01:59.271Z,17.80
2022-09-10T05:02:32.028Z,17.65
2022-09-10T05:03:07.927Z,17.86
2022-09-10T05:03:41.955Z,18.02
2022-09-10T05:04:14.539Z,17.45
2022-09-10T05:04:47.304Z,17.27
2022-09-10T05:05:20.492Z,17.10
2022-09-10T05:05:53.063Z,17.06
2022-09-10T05:06:25.703Z,17.25
2022-09-10T05:06:58.846Z,17.56
2022-09-10T05:07:31.225Z,17.73
2022-09-10T05:08:05.898Z,17.86
2022-09-10T05:08:39.336Z,17.85
2022-09-10T05:09:12.245Z,17.81
2022-09-10T05:09:45.570Z,17.86
2022-09-10T05:10:21.956Z,18.09
2022-09-10T05:10:54.261Z,18.30
2022-09-10T05:11:29.578Z,18.10
2022-09-10T05:12:04.151Z,18.27
2022-09-10T05:12:38.547Z,18.19
2022-09-10T05:13:11.798Z,18.22
2022-09-10T05:13:45.230Z,18.34
2022-09-10T05:14:20.154Z,18.39
2022-09-10T05:14:53.127Z,18.38
2022-09-10T05:15:25.544Z,18.52
2022-09-10T05:15:59.234Z,18.51
2022-09-10T05:16:31.731Z,18.34
2022-09-10T05:17:04.187Z,18.46
2022-09-10T05:17:38.796Z,18.43
2022-09-10T05:18:13.457Z,18.14
2022-09-10T05:18:46.076Z,18.37
2022-09-10T05:19:21.140Z,18.16
2022-09-10T05:20:08.488Z,18.26
2022-09-10T05:20:46.327Z,18.15
2022-09-10T05:21:19.471Z,17.95
2022-09-10T05:21:52.586Z,18.01
2022-09-10T05:22:31.632Z,18.32
2022-09-10T05:23:07.633Z,18.41
2022-09-10T05:23:41.938Z,18.35
2022-09-10T05:24:15.562Z,18.07
2022-09-10T05:24:49.198Z,17.63
2022-09-10T05:25:21.755Z,17.52
2022-09-10T05:25:54.179Z,17.72
2022-09-10T05:26:27.768Z,17.85
2022-09-10T05:27:01.210Z,17.87
2022-09-10T05:27:33.805Z,17.94
2022-09-10T05:28:06.107Z,18.02
2022-09-10T05:28:38.536Z,18.06
2022-09-10T05:29:14.105Z,18.17
2022-09-10T05:29:47.515Z,18.13
2022-09-10T05:30:21.280Z,18.17
2022-09-10T05:30:54.052Z,18.04
2022-09-10T05:31:28.750Z,17.86
2022-09-10T05:32:09.596Z,17.87
2022-09-10T05:32:41.877Z,17.89
2022-09-10T05:33:14.692Z,17.84
2022-09-10T05:33:47.016Z,17.78
2022-09-10T05:34:19.292Z,17.92
2022-09-10T05:34:53.696Z,17.97
2022-09-10T05:35:26.439Z,17.71
2022-09-10T05:35:58.730Z,17.73
2022-09-10T05:36:33.909Z,17.87
2022-09-10T05:37:08.823Z,17.72
2022-09-10T05:37:42.026Z,17.81
2022-09-10T05:38:14.895Z,17.89
2022-09-10T05:38:48.032Z,17.71
2022-09-10T05:39:21.540Z,17.94
2022-09-10T05:39:53.830Z,18.62
2022-09-10T05:40:26.988Z,18.97
2022-09-10T05:40:59.678Z,18.68
2022-09-10T05:41:32.879Z,18.68
2022-09-10T05:42:07.248Z,18.89
2022-09-10T05:42:40.510Z,18.87
2022-09-10T05:43:12.916Z,18.36
2022-09-10T05:43:45.127Z,18.28
2022-09-10T05:44:19.224Z,18.15
2022-09-10T05:44:52.073Z,17.99
2022-09-10T05:45:24.367Z,17.87
2022-09-10T05:45:56.714Z,18.04
2022-09-10T05:46:31.047Z,18.15
2022-09-10T05:47:08.731Z,18.29
2022-09-10T05:47:40.912Z,18.27
2022-09-10T05:48:15.404Z,18.16
2022-09-10T05:48:47.887Z,18.01
2022-09-10T05:49:21.176Z,18.16
2022-09-10T05:49:53.356Z,18.38
2022-09-10T05:50:26.060Z,18.27
2022-09-10T05:50:59.205Z,17.96
2022-09-10T05:51:32.463Z,18.22
2022-09-10T05:52:08.664Z,18.20
2022-09-10T05:52:41.135Z,18.15
2022-09-10T05:53:15.833Z,18.12
2022-09-10T05:53:48.638Z,18.20
2022-09-10T05:54:22.268Z,18.39
2022-09-10T05:54:56.541Z,18.29
2022-09-10T05:55:31.285Z,18.19
2022-09-10T05:56:05.403Z,18.20
2022-09-10T05:56:38.571Z,18.39
2022-09-10T05:57:11.764Z,18.28
2022-09-10T05:57:44.355Z,18.41
2022-09-10T05:58:19.682Z,18.29
2022-09-10T05:58:52.224Z,18.44
2022-09-10T05:59:24.827Z,18.40
2022-09-10T06:00:00.299Z,18.49
2022-09-10T06:00:32.704Z,18.29
2022-09-10T06:01:06.834Z,18.31
2022-09-10T06:01:39.595Z,18.30
2022-09-10T06:02:21.697Z,18.25
2022-09-10T06:02:59.744Z,18.03
2022-09-10T06:03:40.617Z,18.17
2022-09-10T06:04:13.408Z,18.20
2022-09-10T06:04:45.737Z,18.04
2022-09-10T06:05:21.320Z,18.10
2022-09-10T06:05:55.802Z,18.30
2022-09-10T06:06:35.327Z,18.27
2022-09-10T06:07:12.539Z,18.11
2022-09-10T06:07:44.931Z,18.14
2022-09-10T06:08:18.050Z,17.92
2022-09-10T06:08:52.187Z,17.99
2022-09-10T06:09:45.013Z,18.07
2022-09-10T06:10:27.453Z,18.03
2022-09-10T06:11:02.688Z,17.96
2022-09-10T06:11:40.758Z,18.10
2022-09-10T06:12:13.357Z,18.18
2022-09-10T06:12:49.883Z,18.16
2022-09-10T06:13:23.291Z,18.19
2022-09-10T06:13:55.483Z,17.96
2022-09-10T06:14:27.638Z,17.81
2022-09-10T06:14:59.911Z,18.10
2022-09-10T06:15:33.289Z,17.95
2022-09-10T06:16:07.501Z,17.91
2022-09-10T06:16:40.981Z,17.99
2022-09-10T06:17:13.746Z,18.02
2022-09-10T06:17:46.932Z,18.14
2022-09-10T06:18:20.006Z,18.08
2022-09-10T06:18:54.354Z,18.15
2022-09-10T06:19:27.877Z,18.16
2022-09-10T06:20:01.301Z,18.04
2022-09-10T06:20:37.724Z,18.09
2022-09-10T06:21:17.408Z,18.12
2022-09-10T06:21:55.092Z,18.23
2022-09-10T06:22:28.094Z,18.22
2022-09-10T06:23:00.322Z,18.25
2022-09-10T06:23:34.101Z,18.32
2022-09-10T06:24:07.406Z,18.42
2022-09-10T06:24:43.849Z,18.06
2022-09-10T06:25:16.564Z,17.90
2022-09-10T06:25:48.714Z,18.03
2022-09-10T06:26:24.491Z,18.04
2022-09-10T06:27:00.786Z,18.32
2022-09-10T06:27:35.512Z,18.28
2022-09-10T06:28:09.826Z,18.41
2022-09-10T06:28:42.241Z,18.36
2022-09-10T06:29:15.147Z,18.41
2022-09-10T06:29:47.945Z,18.17
2022-09-10T06:30:20.902Z,18.22
2022-09-10T06:30:54.486Z,17.93
2022-09-10T06:31:27.729Z,18.14
2022-09-10T06:32:01.172Z,18.19
2022-09-10T06:32:33.535Z,18.32
2022-09-10T06:33:07.491Z,18.26
2022-09-10T06:33:40.889Z,18.31
2022-09-10T06:34:13.662Z,18.49
2022-09-10T06:34:46.291Z,18.37
2022-09-10T06:35:19.161Z,18.46
2022-09-10T06:35:59.707Z,18.61
2022-09-10T06:36:34.120Z,18.66
2022-09-10T06:37:07.100Z,18.72
2022-09-10T06:37:42.292Z,18.52
2022-09-10T06:38:16.494Z,18.24
2022-09-10T06:38:49.521Z,18.50
2022-09-10T06:39:22.065Z,18.63
2022-09-10T06:39:57.179Z,18.57
2022-09-10T06:40:31.091Z,18.79
2022-09-10T06:41:06.117Z,18.82
2022-09-10T06:41:49.601Z,19.04
2022-09-10T06:42:54.962Z,18.99
2022-09-10T06:43:47.388Z,18.91
2022-09-10T06:44:41.529Z,19.11
2022-09-10T06:45:29.165Z,19.02
2022-09-10T06:46:56.778Z,19.07
2022-09-10T06:48:37.706Z,18.91
2022-09-10T06:49:04.303Z,18.82
2022-09-10T06:49:39.075Z,19.15
2022-09-10T06:50:11.201Z,19.41
2022-09-10T06:51:00.020Z,19.23
2022-09-10T06:51:38.385Z,19.27
2022-09-10T06:52:11.667Z,19.42
2022-09-10T06:52:44.492Z,19.63
2022-09-10T06:53:22.265Z,19.74
2022-09-10T06:53:54.962Z,19.77
2022-09-10T06:54:28.429Z,19.44
2022-09-10T06:55:06.108Z,19.16
2022-09-10T06:55:43.961Z,19.33
2022-09-10T06:56:16.277Z,19.47
2022-09-10T06:56:49.824Z,19.56
2022-09-10T06:57:26.024Z,19.22
2022-09-10T06:57:59.990Z,19.28
2022-09-10T06:58:35.504Z,19.38
2022-09-10T06:59:22.113Z,19.26
2022-09-10T06:59:56.378Z,19.43
2022-09-10T07:00:28.614Z,19.54
2022-09-10T07:01:15.744Z,20.06
2022-09-10T07:01:52.585Z,19.88
2022-09-10T07:02:26.255Z,19.89
2022-09-10T07:03:00.217Z,19.86
2022-09-10T07:03:32.838Z,19.79
2022-09-10T07:04:06.935Z,19.46
2022-09-10T07:04:39.742Z,19.72
2022-09-10T07:05:12.120Z,19.92
2022-09-10T07:05:46.728Z,20.14
2022-09-10T07:06:19.489Z,19.81
2022-09-10T07:06:55.687Z,19.70
2022-09-10T07:07:28.375Z,20.06
2022-09-10T07:08:02.046Z,20.09
2022-09-10T07:08:34.563Z,19.70
2022-09-10T07:09:06.909Z,19.19
2022-09-10T07:09:44.527Z,19.37
2022-09-10T07:10:20.432Z,19.32
2022-09-10T07:10:54.223Z,19.31
2022-09-10T07:11:28.736Z,19.38
2022-09-10T07:12:04.879Z,19.59
2022-09-10T07:12:40.600Z,20.00
2022-09-10T07:13:14.013Z,19.91
2022-09-10T07:13:52.078Z,19.69
2022-09-10T07:14:27.113Z,19.57
2022-09-10T07:15:01.495Z,19.77
2022-09-10T07:15:36.979Z,19.68
2022-09-10T07:16:09.691Z,19.78
2022-09-10T07:16:42.220Z,19.71
2022-09-10T07:17:15.650Z,19.83
2022-09-10T07:17:47.911Z,19.43
2022-09-10T07:18:21.017Z,19.60
2022-09-10T07:18:57.084Z,19.82
2022-09-10T07:19:37.801Z,20.07
2022-09-10T07:20:29.508Z,20.15
2022-09-10T07:21:10.459Z,19.88
2022-09-10T07:21:47.931Z,19.71
2022-09-10T07:22:21.711Z,19.55
2022-09-10T07:22:55.415Z,19.50
2022-09-10T07:23:31.356Z,19.59
2022-09-10T07:24:05.804Z,19.60
2022-09-10T07:24:39.918Z,19.56
2022-09-10T07:25:16.552Z,19.85
2022-09-10T07:26:13.301Z,19.78
2022-09-10T07:26:57.086Z,19.58
2022-09-10T07:27:29.561Z,19.22
2022-09-10T07:28:03.805Z,19.36
2022-09-10T07:28:39.890Z,19.50
2022-09-10T07:29:13.002Z,19.55
2022-09-10T07:29:45.229Z,19.64
2022-09-10T07:30:22.430Z,19.61
2022-09-10T07:30:56.267Z,19.15
2022-09-10T07:31:30.963Z,19.15
2022-09-10T07:32:06.804Z,19.17
2022-09-10T07:32:43.372Z,18.89
2022-09-10T07:33:20.473Z,19.31
2022-09-10T07:33:53.650Z,19.00
2022-09-10T07:34:25.983Z,18.84
2022-09-10T07:34:58.631Z,19.13
2022-09-10T07:35:36.369Z,19.22
2022-09-10T07:36:10.086Z,19.05
2022-09-10T07:36:42.489Z,19.10
2022-09-10T07:37:18.098Z,19.45
2022-09-10T07:37:51.881Z,19.62
2022-09-10T07:38:25.899Z,19.56
2022-09-10T07:39:01.865Z,19.51
2022-09-10T07:39:37.038Z,19.22
2022-09-10T07:40:09.984Z,19.05
2022-09-10T07:40:43.796Z,19.29
2022-09-10T07:41:16.415Z,19.30
2022-09-10T07:41:49.247Z,19.45